Time;durP1;ratioP1;P1;durP2;ratioP2;P2;SDS_P1;SDS_P2;PMS_P1;PMS_P2;Temp;Humidity;BMP_temperature;BMP_pressure;BME280_temperature;BME280_humidity;BME280_pressure;Samples;Min_cycle;Max_cycle;Signal;HPM_P1;HPM_P2
2024/03/10 00:02:00;;;;;;;8.45;7.53;;;19.30;55.00;;;;;;5008007;28;20026;-68
2024/03/10 00:04:25;;;;;;;8.50;7.43;;;19.40;55.00;;;;;;5012559;28;20056;-67
2024/03/10 00:06:51;;;;;;;9.23;8.18;;;19.40;55.00;;;;;;5026306;28;20608;-67
2024/03/10 00:09:17;;;;;;;7.93;7.10;;;19.40;55.00;;;;;;5023996;28;20038;-68
2024/03/10 00:11:45;;;;;;;10.10;7.95;;;19.30;55.00;;;;;;5025313;28;20655;-67
2024/03/10 00:14:11;;;;;;;7.93;7.10;;;19.30;55.00;;;;;;5021514;28;20026;-67
2024/03/10 00:16:37;;;;;;;8.20;7.40;;;19.30;55.00;;;;;;5025639;28;20037;-64
2024/03/10 00:19:03;;;;;;;7.78;7.07;;;19.40;55.10;;;;;;5023696;28;20043;-68
2024/03/10 00:21:29;;;;;;;7.85;7.03;;;19.40;55.10;;;;;;5022390;28;20048;-68
2024/03/10 00:23:55;;;;;;;8.55;7.75;;;19.30;55.00;;;;;;5025890;28;20033;-70
2024/03/10 00:26:20;;;;;;;7.88;7.07;;;19.40;55.00;;;;;;5023491;28;20091;-67
2024/03/10 00:28:48;;;;;;;8.82;7.93;;;19.30;55.00;;;;;;5022594;28;20428;-63
2024/03/10 00:31:14;;;;;;;7.65;6.65;;;19.30;55.00;;;;;;5021458;28;20026;-67
2024/03/10 00:33:39;;;;;;;9.00;8.10;;;19.30;55.10;;;;;;5023758;28;20060;-67
2024/03/10 00:36:05;;;;;;;8.30;7.50;;;19.30;55.00;;;;;;5024625;28;20037;-67
2024/03/10 00:38:31;;;;;;;8.07;7.28;;;19.40;55.10;;;;;;5017235;28;20032;-67
2024/03/10 00:40:57;;;;;;;7.88;7.10;;;19.30;55.10;;;;;;5021176;28;20037;-67
2024/03/10 00:43:22;;;;;;;8.52;6.70;;;19.40;55.10;;;;;;5027206;28;20026;-66
2024/03/10 00:45:50;;;;;;;7.97;7.22;;;19.40;55.10;;;;;;5026010;28;20639;-63
2024/03/10 00:48:15;;;;;;;8.88;7.63;;;19.30;55.10;;;;;;5023663;28;20060;-68
2024/03/10 00:50:41;;;;;;;8.55;7.65;;;19.40;55.70;;;;;;5025590;28;20481;-68
2024/03/10 00:53:06;;;;;;;8.40;7.45;;;19.30;55.10;;;;;;5025452;28;20420;-69
2024/03/10 00:55:32;;;;;;;7.40;6.70;;;19.30;55.70;;;;;;5024532;28;20063;-64
2024/03/10 00:57:57;;;;;;;8.45;7.53;;;19.40;55.80;;;;;;5026266;28;20416;-67
2024/03/10 01:00:24;;;;;;;8.82;7.93;;;19.30;55.10;;;;;;5021341;28;20067;-67
2024/03/10 01:02:50;;;;;;;8.32;7.53;;;19.40;55.10;;;;;;5025336;28;20030;-67
2024/03/10 01:05:16;;;;;;;7.90;7.10;;;19.30;55.10;;;;;;5024130;28;20064;-68
2024/03/10 01:07:41;;;;;;;7.65;6.95;;;19.30;55.20;;;;;;5014495;28;20029;-69
2024/03/10 01:10:11;;;;;;;8.68;7.78;;;19.30;55.30;;;;;;5027773;28;20088;-68
2024/03/10 01:12:36;;;;;;;9.30;8.25;;;19.20;55.30;;;;;;5023748;28;20511;-68
2024/03/10 01:15:03;;;;;;;8.32;7.53;;;19.20;55.40;;;;;;5026161;28;20041;-69
2024/03/10 01:17:28;;;;;;;8.35;7.55;;;19.20;55.50;;;;;;5025435;28;20429;-64
2024/03/10 01:19:53;;;;;;;8.30;7.55;;;19.10;55.50;;;;;;5023900;28;20060;-68
2024/03/10 01:22:19;;;;;;;8.90;8.00;;;19.10;55.70;;;;;;5025915;28;20400;-68
2024/03/10 01:24:44;;;;;;;8.27;7.47;;;19.00;55.70;;;;;;5024026;28;20037;-68
2024/03/10 01:27:10;;;;;;;9.13;8.20;;;19.00;55.80;;;;;;5024763;28;20029;-68
2024/03/10 01:29:36;;;;;;;8.60;7.32;;;19.00;55.90;;;;;;5023005;28;20033;-66
2024/03/10 01:32:03;;;;;;;9.10;8.20;;;18.90;55.90;;;;;;5022787;28;20385;-69
2024/03/10 01:34:28;;;;;;;7.90;7.20;;;18.90;56.00;;;;;;5020512;28;20030;-68
2024/03/10 01:36:54;;;;;;;8.40;7.60;;;18.90;56.00;;;;;;5025713;28;20041;-65
2024/03/10 01:39:20;;;;;;;7.90;7.15;;;18.90;56.00;;;;;;5022862;28;20049;-68
2024/03/10 01:41:46;;;;;;;8.82;7.85;;;18.90;56.00;;;;;;5022906;28;20033;-68
2024/03/10 01:44:11;;;;;;;8.38;7.57;;;18.90;56.00;;;;;;5023356;28;20108;-64
2024/03/10 01:46:37;;;;;;;8.20;7.40;;;18.90;56.00;;;;;;5028509;28;20029;-68
2024/03/10 01:49:04;;;;;;;7.88;7.18;;;18.90;55.90;;;;;;5021119;28;20087;-69
2024/03/10 01:51:31;;;;;;;8.00;7.30;;;18.90;55.90;;;;;;5021241;28;20037;-68
2024/03/10 01:53:57;;;;;;;7.93;7.18;;;18.90;55.80;;;;;;5026733;28;20037;-68
2024/03/10 01:56:25;;;;;;;8.65;7.78;;;18.90;55.80;;;;;;5023803;28;20037;-68
2024/03/10 01:58:52;;;;;;;8.30;7.50;;;19.00;55.90;;;;;;5015279;28;20030;-68
2024/03/10 02:01:21;;;;;;;8.00;7.22;;;19.00;55.90;;;;;;5018700;28;20099;-67
2024/03/10 02:03:49;;;;;;;8.60;7.72;;;19.00;55.80;;;;;;5019844;28;20106;-64
2024/03/10 02:06:14;;;;;;;7.68;6.97;;;19.00;55.80;;;;;;5017072;28;20060;-68
2024/03/10 02:08:41;;;;;;;8.18;7.35;;;19.00;55.80;;;;;;5020101;28;20037;-65
2024/03/10 02:11:08;;;;;;;8.30;7.50;;;19.00;55.80;;;;;;5016720;28;20033;-68
2024/03/10 02:13:34;;;;;;;8.80;8.00;;;19.00;55.80;;;;;;5018823;28;20408;-64
2024/03/10 02:16:06;;;;;;;8.50;7.70;;;19.00;55.70;;;;;;5023771;28;20028;-68
2024/03/10 02:18:33;;;;;;;7.78;7.05;;;19.00;55.70;;;;;;5012375;28;20054;-68
2024/03/10 02:20:59;;;;;;;8.13;7.32;;;19.00;55.70;;;;;;5024328;28;20395;-67
2024/03/10 02:23:32;;;;;;;8.30;7.50;;;19.00;55.60;;;;;;5026301;28;20104;-68
2024/03/10 02:25:59;;;;;;;7.53;6.82;;;19.00;55.60;;;;;;5021773;28;20057;-68
2024/03/10 02:28:36;;;;;;;7.57;6.88;;;19.00;55.60;;;;;;5026908;28;20034;-69
2024/03/10 02:47:33;;;;;;;7.72;7.03;;;19.10;55.60;;;;;;5021965;28;20044;-67
2024/03/10 02:50:05;;;;;;;8.05;7.25;;;19.00;55.60;;;;;;5029198;28;20341;-69
2024/03/10 02:52:34;;;;;;;8.13;7.43;;;19.10;55.70;;;;;;5025808;28;20034;-64
2024/03/10 02:55:01;;;;;;;7.78;7.07;;;19.10;55.70;;;;;;5026740;28;20480;-68
2024/03/10 02:57:30;;;;;;;7.70;6.93;;;19.10;55.70;;;;;;5031819;28;20037;-69
2024/03/10 02:59:56;;;;;;;8.30;7.50;;;19.00;55.60;;;;;;4995269;28;20072;-69
2024/03/10 03:02:22;;;;;;;7.95;7.25;;;19.10;55.60;;;;;;5019333;28;20069;-67
2024/03/10 03:04:47;;;;;;;7.70;6.95;;;19.00;55.60;;;;;;5019365;28;20061;-69
2024/03/10 03:07:14;;;;;;;8.35;7.57;;;19.10;55.70;;;;;;5016467;28;20041;-68
2024/03/10 03:09:40;;;;;;;7.93;7.13;;;19.10;55.60;;;;;;5001173;28;20112;-69
2024/03/10 03:12:05;;;;;;;7.97;7.13;;;19.10;55.60;;;;;;5025029;28;20025;-68
2024/03/10 03:14:31;;;;;;;8.50;7.25;;;19.10;55.70;;;;;;5022542;28;20392;-68
2024/03/10 03:16:57;;;;;;;7.75;7.05;;;19.10;55.70;;;;;;5002457;28;20544;-68
2024/03/10 03:19:22;;;;;;;7.97;7.28;;;19.00;55.70;;;;;;5026517;28;20053;-69
2024/03/10 03:21:48;;;;;;;7.47;6.82;;;19.00;55.70;;;;;;5021895;28;20040;-64
2024/03/10 03:24:15;;;;;;;8.13;7.38;;;19.00;55.70;;;;;;5021343;28;20060;-66
2024/03/10 03:26:42;;;;;;;8.02;7.32;;;19.00;55.70;;;;;;5025519;28;20029;-68
2024/03/10 03:29:09;;;;;;;7.68;6.97;;;19.00;55.80;;;;;;5023218;28;20116;-68
2024/03/10 03:31:34;;;;;;;8.65;7.82;;;19.00;55.80;;;;;;5023641;28;20092;-67
2024/03/10 03:33:59;;;;;;;7.75;7.05;;;19.00;55.80;;;;;;5023390;28;20282;-66
2024/03/10 03:36:25;;;;;;;7.53;6.85;;;19.00;55.80;;;;;;5024712;28;20026;-68
2024/03/10 03:38:51;;;;;;;7.60;6.90;;;19.00;55.90;;;;;;5026322;28;20565;-67
2024/03/10 03:41:17;;;;;;;7.85;7.10;;;19.00;55.90;;;;;;5023154;28;20084;-69
2024/03/10 03:43:43;;;;;;;8.00;7.20;;;19.00;55.90;;;;;;5022620;28;20037;-69
2024/03/10 03:46:09;;;;;;;7.60;6.80;;;19.00;55.90;;;;;;5022718;28;20091;-68
2024/03/10 03:48:34;;;;;;;7.78;7.07;;;18.90;55.90;;;;;;5022991;28;20053;-68
2024/03/10 03:51:00;;;;;;;7.68;6.97;;;18.90;55.90;;;;;;5018460;28;20021;-65
2024/03/10 03:53:26;;;;;;;7.43;6.72;;;18.90;56.00;;;;;;5024382;28;20437;-68
2024/03/10 03:55:51;;;;;;;6.60;6.00;;;18.90;55.90;;;;;;5006833;28;20030;-68
2024/03/10 03:58:17;;;;;;;7.43;6.72;;;18.90;56.00;;;;;;5021879;28;20033;-69
2024/03/10 04:00:43;;;;;;;7.70;7.00;;;18.90;56.00;;;;;;5026582;28;20696;-67
2024/03/10 04:03:09;;;;;;;8.13;7.43;;;18.90;56.00;;;;;;5020682;28;20022;-67
2024/03/10 04:05:35;;;;;;;7.70;7.00;;;18.90;56.60;;;;;;5020511;28;20487;-68
2024/03/10 04:08:01;;;;;;;7.63;6.93;;;18.90;56.00;;;;;;5022021;28;20056;-68
2024/03/10 04:10:26;;;;;;;7.40;6.78;;;18.90;56.00;;;;;;5024284;28;20036;-67
2024/03/10 04:12:53;;;;;;;7.03;6.43;;;18.90;56.00;;;;;;5023697;28;20028;-68
2024/03/10 04:15:19;;;;;;;7.75;7.05;;;18.80;56.00;;;;;;5021089;28;20154;-67
2024/03/10 04:17:46;;;;;;;7.93;7.22;;;18.80;56.00;;;;;;5023177;28;20070;-66
2024/03/10 04:20:13;;;;;;;7.85;7.15;;;18.90;56.00;;;;;;5022726;28;20025;-68
2024/03/10 04:22:39;;;;;;;7.03;6.43;;;18.80;56.00;;;;;;5021980;28;20026;-68
2024/03/10 04:25:09;;;;;;;7.68;7.00;;;18.90;56.10;;;;;;5020773;28;20029;-68
2024/03/10 04:27:35;;;;;;;7.25;6.47;;;18.80;56.00;;;;;;5023300;28;20061;-68
2024/03/10 04:30:04;;;;;;;7.38;6.68;;;18.80;56.00;;;;;;5022513;28;20068;-67
2024/03/10 04:32:30;;;;;;;8.00;7.30;;;18.80;56.00;;;;;;5024277;28;20038;-68
2024/03/10 04:34:56;;;;;;;6.82;6.22;;;18.80;56.00;;;;;;5026045;28;20037;-66
2024/03/10 04:37:22;;;;;;;7.28;6.63;;;18.80;56.00;;;;;;5024554;28;20390;-69
2024/03/10 04:39:48;;;;;;;7.75;7.05;;;18.80;56.00;;;;;;5022174;28;20042;-68
2024/03/10 04:42:15;;;;;;;7.72;7.00;;;18.80;56.00;;;;;;5021583;28;20039;-70
2024/03/10 04:44:41;;;;;;;7.32;6.63;;;18.80;56.00;;;;;;5024831;28;20037;-70
2024/03/10 04:47:07;;;;;;;6.65;6.05;;;18.80;56.00;;;;;;5025238;28;20030;-68
2024/03/10 04:49:33;;;;;;;7.35;6.72;;;18.80;56.00;;;;;;5023533;28;20045;-68
2024/03/10 04:52:00;;;;;;;6.90;6.25;;;18.80;56.00;;;;;;5025750;28;20059;-70
2024/03/10 04:54:25;;;;;;;7.57;6.85;;;18.80;56.00;;;;;;5026483;28;20041;-68
2024/03/10 04:56:51;;;;;;;7.72;7.03;;;18.80;56.00;;;;;;5022548;28;20493;-68
2024/03/10 04:59:18;;;;;;;7.30;6.60;;;18.80;56.00;;;;;;5021318;28;22175;-68
2024/03/10 05:01:43;;;;;;;7.03;6.22;;;18.80;56.00;;;;;;5025001;28;20487;-68
2024/03/10 05:04:09;;;;;;;6.68;6.07;;;18.80;56.00;;;;;;5023075;28;20080;-68
2024/03/10 05:06:35;;;;;;;7.35;6.65;;;18.80;56.00;;;;;;5025411;28;20036;-69
2024/03/10 05:09:00;;;;;;;6.53;5.93;;;18.80;56.00;;;;;;5023809;28;20029;-68
2024/03/10 05:11:26;;;;;;;6.85;6.25;;;18.90;56.00;;;;;;5023039;28;20034;-68
2024/03/10 05:13:51;;;;;;;7.13;6.50;;;18.80;55.90;;;;;;5026144;28;20425;-68
2024/03/10 05:16:17;;;;;;;6.97;6.35;;;18.80;55.90;;;;;;5023952;28;20060;-70
2024/03/10 05:18:43;;;;;;;6.88;6.20;;;18.80;55.90;;;;;;5016951;28;20037;-64
2024/03/10 05:21:08;;;;;;;6.55;6.05;;;18.90;56.00;;;;;;5023961;28;20554;-63
2024/03/10 05:23:34;;;;;;;7.53;6.88;;;18.80;55.90;;;;;;5022732;28;20048;-68
2024/03/10 05:26:00;;;;;;;6.70;6.10;;;18.80;55.90;;;;;;5022139;28;20423;-68
2024/03/10 05:28:25;;;;;;;6.93;6.32;;;18.80;55.90;;;;;;5028794;28;20033;-68
2024/03/10 05:30:52;;;;;;;6.40;5.90;;;18.90;55.90;;;;;;5023502;28;20053;-65
2024/03/10 05:33:18;;;;;;;7.38;6.70;;;18.90;55.90;;;;;;5028352;28;20044;-69
2024/03/10 05:35:43;;;;;;;7.10;6.40;;;18.80;55.80;;;;;;5024860;28;20026;-69
2024/03/10 05:38:09;;;;;;;6.32;5.72;;;18.90;55.80;;;;;;5024135;28;20045;-68
2024/03/10 05:40:34;;;;;;;6.90;6.30;;;18.90;55.80;;;;;;5020039;28;20036;-66
2024/03/10 05:43:00;;;;;;;6.50;5.90;;;18.90;55.80;;;;;;5023494;28;20381;-68
2024/03/10 05:45:25;;;;;;;6.85;6.20;;;18.90;55.80;;;;;;5022581;28;20034;-68
2024/03/10 05:47:51;;;;;;;6.78;6.10;;;18.90;55.80;;;;;;5022653;28;20116;-66
2024/03/10 05:50:17;;;;;;;7.10;6.43;;;18.90;55.80;;;;;;5017843;28;20018;-69
2024/03/10 05:52:43;;;;;;;6.70;6.10;;;18.90;55.80;;;;;;5025330;28;20034;-69
2024/03/10 05:55:08;;;;;;;6.35;5.75;;;18.90;55.80;;;;;;5021302;28;20029;-69
2024/03/10 05:57:34;;;;;;;6.30;5.80;;;18.90;55.80;;;;;;5022809;28;20035;-67
2024/03/10 05:59:59;;;;;;;6.85;6.25;;;18.90;55.70;;;;;;5021947;28;20408;-68
2024/03/10 06:02:25;;;;;;;7.57;6.90;;;18.90;55.70;;;;;;5012894;28;20033;-70
2024/03/10 06:04:50;;;;;;;7.47;5.95;;;18.90;55.70;;;;;;5021881;28;20037;-70
2024/03/10 06:07:16;;;;;;;6.20;5.70;;;19.00;55.70;;;;;;5023464;28;20029;-68
2024/03/10 06:09:41;;;;;;;6.88;6.28;;;18.90;55.70;;;;;;5018757;28;20455;-64
2024/03/10 06:12:07;;;;;;;6.15;5.65;;;19.00;55.70;;;;;;5020442;28;20443;-67
2024/03/10 06:14:33;;;;;;;7.10;6.28;;;19.00;55.70;;;;;;5022886;28;20035;-69
2024/03/10 06:16:59;;;;;;;6.85;6.25;;;18.90;55.60;;;;;;5013613;28;20042;-69
2024/03/10 06:27:41;;;;;;;5.97;5.47;;;19.00;56.30;;;;;;5029017;28;20036;-69
2024/03/10 06:30:08;;;;;;;6.90;6.22;;;19.00;55.60;;;;;;5021551;28;20041;-69
2024/03/10 06:32:33;;;;;;;6.10;5.60;;;19.00;55.60;;;;;;5023880;28;20041;-69
2024/03/10 06:34:59;;;;;;;6.78;6.18;;;19.00;55.60;;;;;;5026550;28;20511;-69
2024/03/10 06:37:24;;;;;;;6.13;5.53;;;19.00;55.60;;;;;;5028750;28;20029;-69
2024/03/10 06:39:49;;;;;;;6.85;6.25;;;19.00;55.60;;;;;;5024827;28;20034;-69
2024/03/10 06:42:15;;;;;;;5.68;5.18;;;19.00;55.60;;;;;;5028411;28;20042;-69
2024/03/10 06:44:40;;;;;;;6.60;6.00;;;19.00;55.60;;;;;;5030805;28;20515;-69
2024/03/10 06:47:07;;;;;;;6.32;5.78;;;19.00;55.60;;;;;;5028413;28;20029;-68
2024/03/10 06:49:32;;;;;;;5.97;5.43;;;19.00;55.60;;;;;;5023972;28;20044;-67
2024/03/10 06:51:58;;;;;;;6.25;5.70;;;19.00;55.60;;;;;;5024353;28;20029;-68
2024/03/10 06:54:23;;;;;;;5.88;5.38;;;19.00;55.60;;;;;;5027912;28;20037;-69
2024/03/10 06:56:50;;;;;;;5.50;5.00;;;19.00;55.60;;;;;;5026119;28;20504;-68
2024/03/10 06:59:16;;;;;;;5.93;5.43;;;19.00;55.60;;;;;;5021632;28;20029;-67
2024/03/10 07:01:44;;;;;;;6.32;5.72;;;19.00;55.60;;;;;;5022996;28;20088;-69
2024/03/10 07:04:13;;;;;;;6.13;5.55;;;19.00;55.60;;;;;;5020778;28;20500;-69
2024/03/10 07:06:39;;;;;;;5.78;5.28;;;19.00;55.60;;;;;;5019630;28;20042;-68
2024/03/10 07:09:08;;;;;;;6.65;6.07;;;19.00;55.60;;;;;;5021837;28;20092;-69
2024/03/10 07:11:39;;;;;;;6.18;5.57;;;19.00;55.50;;;;;;5019018;28;20041;-68
2024/03/10 07:14:04;;;;;;;6.50;5.90;;;19.00;55.50;;;;;;5022551;28;21072;-69
2024/03/10 07:16:31;;;;;;;7.07;6.15;;;19.00;55.50;;;;;;5023460;28;20091;-69
2024/03/10 07:18:57;;;;;;;6.53;5.93;;;19.00;55.50;;;;;;5014486;28;20124;-69
2024/03/10 07:21:22;;;;;;;6.78;6.18;;;19.00;55.40;;;;;;5021938;28;20042;-71
2024/03/10 07:23:48;;;;;;;6.30;5.70;;;19.00;55.40;;;;;;5023654;28;20036;-70
2024/03/10 07:26:13;;;;;;;7.05;6.35;;;19.00;55.40;;;;;;5024402;28;20045;-70
2024/03/10 07:28:39;;;;;;;7.15;6.50;;;19.00;55.40;;;;;;5026691;28;20531;-70
2024/03/10 07:31:05;;;;;;;6.30;5.80;;;19.10;55.40;;;;;;5024671;28;20550;-69
2024/03/10 07:33:33;;;;;;;6.00;5.50;;;19.10;55.40;;;;;;5022442;28;20048;-70
2024/03/10 07:35:59;;;;;;;6.50;5.90;;;19.10;55.40;;;;;;5026375;28;20033;-69
2024/03/10 07:38:24;;;;;;;7.18;6.45;;;19.10;55.40;;;;;;5024173;28;20080;-67
2024/03/10 07:40:50;;;;;;;7.35;6.68;;;19.10;55.40;;;;;;5022333;28;20409;-69
2024/03/10 07:43:15;;;;;;;6.80;6.20;;;19.10;55.40;;;;;;5021229;28;20516;-69
2024/03/10 07:45:42;;;;;;;6.97;6.38;;;19.10;55.40;;;;;;5009989;28;20029;-69
2024/03/10 07:48:07;;;;;;;5.57;5.15;;;19.10;55.40;;;;;;5020809;28;20038;-65
2024/03/10 07:50:35;;;;;;;7.18;6.57;;;19.10;55.50;;;;;;5024803;28;20060;-69
2024/03/10 07:53:00;;;;;;;6.28;5.68;;;19.10;55.40;;;;;;5004153;28;20469;-68
2024/03/10 07:55:30;;;;;;;6.90;6.22;;;19.10;55.50;;;;;;5006787;28;20052;-69
2024/03/10 07:57:59;;;;;;;6.88;6.28;;;19.10;55.50;;;;;;5024937;28;20048;-68
2024/03/10 08:00:26;;;;;;;6.38;5.88;;;19.10;55.50;;;;;;5029362;28;20033;-70
2024/03/10 08:02:54;;;;;;;7.15;6.45;;;19.10;55.50;;;;;;5019195;28;20045;-68
2024/03/10 08:05:21;;;;;;;6.80;6.20;;;19.10;55.50;;;;;;5009402;28;20029;-70
2024/03/10 08:07:48;;;;;;;6.93;6.32;;;19.10;55.50;;;;;;5024071;28;20032;-68
2024/03/10 08:10:15;;;;;;;7.55;6.75;;;19.10;55.50;;;;;;5008557;28;20067;-69
2024/03/10 08:12:45;;;;;;;9.88;5.80;;;19.10;55.50;;;;;;5023090;28;20060;-70
2024/03/10 08:15:11;;;;;;;6.82;6.13;;;19.10;55.40;;;;;;5024546;28;20041;-69
2024/03/10 08:17:37;;;;;;;7.43;6.50;;;19.10;55.50;;;;;;5004830;28;20089;-69
2024/03/10 08:20:08;;;;;;;5.90;5.30;;;19.10;55.50;;;;;;5003560;28;20036;-70
2024/03/10 08:22:36;;;;;;;7.57;5.95;;;19.10;55.40;;;;;;5020475;28;20052;-69
2024/03/10 08:25:03;;;;;;;6.97;6.30;;;19.10;55.40;;;;;;5018110;28;20029;-68
2024/03/10 08:27:29;;;;;;;6.95;6.35;;;19.10;55.40;;;;;;5021489;28;20096;-69
2024/03/10 08:29:54;;;;;;;6.63;6.03;;;19.10;55.40;;;;;;5028588;28;20029;-70
2024/03/10 08:32:20;;;;;;;7.13;6.43;;;19.10;55.40;;;;;;5021082;28;20128;-68
2024/03/10 08:34:46;;;;;;;7.97;6.35;;;19.10;55.40;;;;;;5022680;28;20091;-68
2024/03/10 08:37:13;;;;;;;6.57;5.97;;;19.10;55.30;;;;;;5023760;28;20502;-69
2024/03/10 08:39:39;;;;;;;6.80;5.82;;;19.10;55.40;;;;;;5029777;28;20025;-70
2024/03/10 08:42:06;;;;;;;6.90;6.25;;;19.10;55.40;;;;;;5021400;28;20095;-68
2024/03/10 08:44:32;;;;;;;7.03;6.32;;;19.10;55.50;;;;;;5027690;28;20064;-69
2024/03/10 08:46:57;;;;;;;6.45;5.75;;;19.00;55.40;;;;;;5025482;28;20053;-69
2024/03/10 08:49:23;;;;;;;7.90;6.70;;;19.00;55.60;;;;;;5020211;28;20022;-68
2024/03/10 08:51:49;;;;;;;7.00;6.35;;;19.00;55.60;;;;;;5019363;28;20589;-69
2024/03/10 08:54:15;;;;;;;7.18;6.25;;;18.90;55.60;;;;;;5020390;28;20033;-70
2024/03/10 08:56:40;;;;;;;7.82;6.95;;;18.90;55.70;;;;;;5024432;28;20378;-70
2024/03/10 08:59:11;;;;;;;9.02;7.00;;;18.90;55.80;;;;;;5010809;28;20053;-69
2024/03/10 09:01:38;;;;;;;9.80;7.43;;;18.80;55.80;;;;;;5019164;28;20026;-68
2024/03/10 09:04:06;;;;;;;13.32;8.20;;;18.80;56.00;;;;;;5018902;28;20036;-70
2024/03/10 09:06:32;;;;;;;11.32;7.10;;;18.80;56.00;;;;;;5026828;28;20087;-70
2024/03/10 09:08:58;;;;;;;12.30;8.45;;;18.80;56.20;;;;;;5021408;28;20029;-68
2024/03/10 09:11:24;;;;;;;12.23;7.85;;;18.80;56.30;;;;;;5023091;28;20041;-68
2024/03/10 09:13:50;;;;;;;16.08;9.00;;;18.70;56.30;;;;;;5004365;28;20522;-69
2024/03/10 09:16:16;;;;;;;16.95;9.98;;;18.70;56.40;;;;;;5020249;28;20666;-69
2024/03/10 09:18:41;;;;;;;13.65;9.15;;;18.70;56.50;;;;;;5016654;28;20496;-69
2024/03/10 09:21:07;;;;;;;15.73;9.52;;;18.70;56.60;;;;;;5015812;28;20032;-70
2024/03/10 09:23:33;;;;;;;15.05;9.80;;;18.70;56.70;;;;;;5019992;28;20547;-70
2024/03/10 09:26:00;;;;;;;15.95;10.48;;;18.70;56.70;;;;;;5012567;28;20034;-71
2024/03/10 09:28:26;;;;;;;23.48;10.25;;;18.70;56.90;;;;;;5015835;28;20091;-71
2024/03/10 09:30:51;;;;;;;20.88;10.05;;;18.70;56.90;;;;;;5013309;28;20037;-70
2024/03/10 09:33:17;;;;;;;19.30;10.43;;;18.70;57.10;;;;;;5014563;28;20610;-70
2024/03/10 09:35:48;;;;;;;17.40;10.10;;;18.70;56.90;;;;;;5017162;28;20489;-71
2024/03/10 09:38:13;;;;;;;18.33;9.77;;;18.80;56.70;;;;;;5019372;28;20041;-70
2024/03/10 09:40:39;;;;;;;17.80;10.13;;;18.80;56.70;;;;;;5016899;28;20693;-70
2024/03/10 09:43:07;;;;;;;15.98;9.88;;;18.90;56.60;;;;;;5018409;28;20431;-71
2024/03/10 09:45:38;;;;;;;17.27;10.40;;;19.00;56.40;;;;;;5014773;28;20029;-70
2024/03/10 09:48:05;;;;;;;18.58;9.77;;;19.10;56.10;;;;;;5024173;28;20109;-71
2024/03/10 09:50:33;;;;;;;16.13;9.32;;;19.20;56.00;;;;;;5015573;28;20040;-71
2024/03/10 09:52:58;;;;;;;18.42;10.35;;;19.30;55.70;;;;;;5026706;28;20519;-71
2024/03/10 09:55:25;;;;;;;16.70;10.15;;;19.40;55.50;;;;;;5020676;28;20029;-70
2024/03/10 09:57:54;;;;;;;15.80;9.45;;;19.50;55.30;;;;;;5024504;28;20068;-70
2024/03/10 10:00:25;;;;;;;13.77;9.07;;;19.60;55.10;;;;;;5008574;28;20050;-70
2024/03/10 10:03:02;;;;;;;14.15;10.05;;;19.70;54.90;;;;;;5011031;28;20524;-69
2024/03/10 10:05:32;;;;;;;16.13;9.45;;;19.80;54.80;;;;;;5023412;28;20051;-70
2024/03/10 10:07:58;;;;;;;14.38;8.68;;;19.80;54.60;;;;;;5032151;28;20032;-70
2024/03/10 10:10:26;;;;;;;15.18;9.60;;;19.90;54.50;;;;;;5025758;28;20048;-70
2024/03/10 10:12:53;;;;;;;15.20;8.65;;;20.00;54.30;;;;;;5028841;28;20033;-70
2024/03/10 10:15:22;;;;;;;13.20;8.05;;;20.00;54.20;;;;;;5020616;28;20032;-69
2024/03/10 10:17:55;;;;;;;13.55;8.80;;;20.10;54.20;;;;;;5025426;28;20037;-71
2024/03/10 10:20:25;;;;;;;13.40;9.07;;;20.10;54.10;;;;;;5001990;28;20026;-69
2024/03/10 10:22:52;;;;;;;13.60;7.50;;;20.10;54.10;;;;;;5021453;28;20041;-70
2024/03/10 10:25:17;;;;;;;13.40;8.70;;;20.10;54.00;;;;;;5022465;28;20045;-70
2024/03/10 10:27:50;;;;;;;13.38;7.97;;;20.10;54.10;;;;;;5001333;28;20096;-69
2024/03/10 10:30:27;;;;;;;10.48;7.97;;;20.10;54.10;;;;;;5024072;28;20112;-69
2024/03/10 10:33:04;;;;;;;11.55;8.30;;;20.00;54.10;;;;;;5017165;28;20045;-69
2024/03/10 10:35:33;;;;;;;11.38;8.13;;;20.00;54.20;;;;;;5010129;28;20068;-66
2024/03/10 10:38:11;;;;;;;11.45;7.85;;;20.00;54.20;;;;;;5017077;28;20042;-68
2024/03/10 10:40:48;;;;;;;10.80;6.97;;;20.00;54.30;;;;;;5017519;28;20461;-69
2024/03/10 10:43:14;;;;;;;12.60;7.75;;;19.90;54.30;;;;;;5022019;28;20500;-68
2024/03/10 10:45:43;;;;;;;10.75;8.35;;;19.90;54.40;;;;;;5017428;28;20038;-68
2024/03/10 10:48:09;;;;;;;9.07;7.47;;;19.90;54.50;;;;;;5023545;28;20380;-68
2024/03/10 10:50:37;;;;;;;10.35;8.20;;;19.90;54.50;;;;;;5023898;28;20061;-65
2024/03/10 10:53:06;;;;;;;13.43;7.72;;;19.80;54.50;;;;;;5025287;28;20084;-68
2024/03/10 10:55:33;;;;;;;12.27;8.02;;;19.80;54.60;;;;;;5021021;28;20120;-65
2024/03/10 10:58:05;;;;;;;11.05;7.45;;;19.80;54.70;;;;;;5025049;28;20042;-69
2024/03/10 11:00:32;;;;;;;9.63;7.05;;;19.70;54.70;;;;;;5025607;28;20168;-65
2024/03/10 11:03:09;;;;;;;10.57;7.07;;;19.70;54.70;;;;;;5024091;28;20050;-68
2024/03/10 11:05:36;;;;;;;9.85;7.40;;;19.60;54.80;;;;;;4995212;28;20026;-66
2024/03/10 11:08:04;;;;;;;10.55;6.93;;;19.60;55.00;;;;;;5023535;28;20026;-63
2024/03/10 11:10:40;;;;;;;9.35;7.93;;;19.60;55.00;;;;;;5023255;28;20037;-67
2024/03/10 11:13:07;;;;;;;8.57;7.22;;;19.50;55.00;;;;;;5023398;28;20033;-69
2024/03/10 11:15:33;;;;;;;11.20;7.63;;;19.50;55.00;;;;;;5026848;28;20436;-68
2024/03/10 11:18:22;;;;;;;8.57;6.65;;;19.50;55.10;;;;;;5023629;28;20104;-65
2024/03/10 11:20:49;;;;;;;9.35;7.13;;;19.50;55.20;;;;;;5021796;28;20175;-67
2024/03/10 11:23:15;;;;;;;12.93;8.40;;;19.50;55.30;;;;;;4995559;28;20022;-67
2024/03/10 11:25:50;;;;;;;9.27;7.40;;;19.50;55.40;;;;;;5023307;28;20045;-67
2024/03/10 11:28:20;;;;;;;11.07;8.00;;;19.40;55.50;;;;;;5025450;28;20117;-68
2024/03/10 11:30:46;;;;;;;10.13;7.65;;;19.40;55.50;;;;;;5020138;28;20202;-68
2024/03/10 11:33:13;;;;;;;13.15;8.13;;;19.50;55.60;;;;;;5026081;28;20740;-67
2024/03/10 11:35:39;;;;;;;8.98;7.10;;;19.50;55.60;;;;;;5024366;28;20125;-69
2024/03/10 11:38:05;;;;;;;11.27;8.02;;;19.40;55.50;;;;;;5021680;28;20041;-68
2024/03/10 11:40:30;;;;;;;9.70;8.20;;;19.50;55.60;;;;;;5024194;28;20094;-65
2024/03/10 11:43:01;;;;;;;10.02;8.02;;;19.50;55.60;;;;;;5026324;28;20042;-68
2024/03/10 11:45:26;;;;;;;10.23;8.07;;;19.50;55.50;;;;;;5024545;28;20041;-68
2024/03/10 11:47:54;;;;;;;13.00;8.43;;;19.50;55.50;;;;;;5027449;28;20037;-68
2024/03/10 11:50:20;;;;;;;10.32;7.70;;;19.50;55.70;;;;;;5020936;28;20520;-69
2024/03/10 11:52:45;;;;;;;12.25;7.90;;;19.50;55.60;;;;;;5027490;28;20033;-66
2024/03/10 11:55:13;;;;;;;12.07;7.95;;;19.50;55.60;;;;;;5024012;28;20514;-68
2024/03/10 11:57:39;;;;;;;10.73;7.85;;;19.50;55.50;;;;;;5027133;28;20041;-68
2024/03/10 12:00:07;;;;;;;9.75;7.57;;;19.50;55.60;;;;;;5027739;28;20573;-68
2024/03/10 12:02:32;;;;;;;9.20;7.22;;;19.50;55.50;;;;;;5023192;28;20033;-68
2024/03/10 12:05:00;;;;;;;9.57;7.25;;;19.50;55.50;;;;;;5023324;28;20033;-66
2024/03/10 12:07:26;;;;;;;8.02;7.15;;;19.40;55.50;;;;;;5023494;28;20030;-68
2024/03/10 12:09:55;;;;;;;7.60;6.35;;;19.50;55.60;;;;;;5022852;28;20043;-69
2024/03/10 12:12:28;;;;;;;8.70;6.80;;;19.50;55.60;;;;;;5005026;28;20116;-68
2024/03/10 12:14:54;;;;;;;8.18;6.90;;;19.40;55.60;;;;;;5023323;28;20041;-67
2024/03/10 12:17:19;;;;;;;7.45;6.28;;;19.40;55.60;;;;;;5025950;28;20400;-69
2024/03/10 12:19:45;;;;;;;10.13;7.15;;;19.40;55.70;;;;;;5024466;28;20057;-70
2024/03/10 12:22:11;;;;;;;13.05;7.38;;;19.40;55.80;;;;;;5025495;28;20037;-69
2024/03/10 12:24:40;;;;;;;9.45;6.90;;;19.40;55.80;;;;;;5022380;28;20148;-71
2024/03/10 12:27:07;;;;;;;8.95;7.03;;;19.40;55.90;;;;;;5024797;28;20454;-68
2024/03/10 12:29:42;;;;;;;9.75;7.43;;;19.40;56.00;;;;;;5024182;28;20037;-65
2024/03/10 12:32:11;;;;;;;9.45;7.07;;;19.40;56.10;;;;;;5023138;28;20038;-69
2024/03/10 12:34:37;;;;;;;7.85;6.80;;;19.40;56.40;;;;;;5022453;28;20045;-71
2024/03/10 12:37:04;;;;;;;8.63;7.38;;;19.30;56.30;;;;;;5005966;28;20033;-68
2024/03/10 12:39:30;;;;;;;10.05;7.55;;;19.40;56.50;;;;;;5023290;28;20025;-68
2024/03/10 12:41:55;;;;;;;9.63;7.93;;;19.30;56.70;;;;;;5025389;28;20029;-67
2024/03/10 12:44:21;;;;;;;9.88;8.68;;;19.30;56.90;;;;;;5022826;28;20606;-69
2024/03/10 12:46:46;;;;;;;17.50;12.10;;;19.30;57.00;;;;;;5024764;28;20132;-64
2024/03/10 12:49:12;;;;;;;53.10;28.95;;;19.30;57.10;;;;;;5022689;28;20040;-67
2024/03/10 12:51:37;;;;;;;96.40;53.90;;;19.20;57.10;;;;;;5020960;28;20061;-66
2024/03/10 12:54:05;;;;;;;95.65;52.92;;;19.20;57.30;;;;;;5029104;28;20494;-68
2024/03/10 12:56:30;;;;;;;102.97;55.13;;;19.20;57.40;;;;;;5022708;28;20128;-68
2024/03/10 12:58:56;;;;;;;108.90;60.92;;;19.20;57.40;;;;;;5025807;28;20120;-66
2024/03/10 13:01:23;;;;;;;120.35;64.95;;;19.20;57.50;;;;;;5023189;28;20025;-68
2024/03/10 13:03:48;;;;;;;122.22;67.85;;;19.10;57.50;;;;;;5023399;28;20108;-70
2024/03/10 13:06:14;;;;;;;120.40;69.22;;;19.10;57.30;;;;;;5023357;28;20429;-68